createdAt,value
2017-06-03T00:00:23.421Z,0
2017-06-03T00:01:33.475Z,0
2017-06-03T00:02:43.816Z,0
2017-06-03T00:03:53.894Z,0
2017-06-03T00:05:04.258Z,0
2017-06-03T00:06:14.313Z,0
2017-06-03T00:07:24.671Z,0
2017-06-03T00:08:34.722Z,0
2017-06-03T00:09:44.780Z,0
2017-06-03T00:10:55.122Z,0
2017-06-03T00:12:05.170Z,0
2017-06-03T00:13:15.202Z,0
2017-06-03T00:14:25.557Z,0
2017-06-03T00:15:35.613Z,0
2017-06-03T00:16:45.974Z,0
2017-06-03T00:17:56.330Z,0
2017-06-03T00:19:06.374Z,0
2017-06-03T00:20:16.427Z,0
2017-06-03T00:21:26.476Z,0
2017-06-03T00:22:36.828Z,0
2017-06-03T00:23:47.187Z,0
2017-06-03T00:24:57.220Z,0
2017-06-03T00:26:07.580Z,0
2017-06-03T00:27:17.666Z,0
2017-06-03T00:28:28.014Z,0
2017-06-03T00:29:38.366Z,0
2017-06-03T00:30:48.738Z,0
2017-06-03T00:31:58.791Z,0
2017-06-03T00:33:09.191Z,0
2017-06-03T00:34:19.533Z,0
2017-06-03T00:35:29.880Z,0
2017-06-03T00:36:39.597Z,0
2017-06-03T00:37:49.951Z,0
2017-06-03T00:39:00.297Z,0
2017-06-03T00:40:10.655Z,0
2017-06-03T00:41:21.014Z,0
2017-06-03T00:42:31.056Z,0
2017-06-03T00:43:41.418Z,0
2017-06-03T00:44:51.513Z,0
2017-06-03T00:46:01.561Z,0
2017-06-03T00:47:11.608Z,0
2017-06-03T00:48:21.954Z,0
2017-06-03T00:49:31.997Z,0
2017-06-03T00:50:42.071Z,0
2017-06-03T00:51:52.425Z,0
2017-06-03T00:53:02.148Z,0
2017-06-03T00:54:12.184Z,0
2017-06-03T00:55:22.225Z,0
2017-06-03T00:56:32.282Z,0
2017-06-03T00:57:42.315Z,0
2017-06-03T00:58:52.667Z,0
2017-06-03T01:00:03.020Z,0
2017-06-03T01:01:13.378Z,0
2017-06-03T01:02:23.778Z,0
2017-06-03T01:03:34.146Z,0
2017-06-03T01:04:44.186Z,0
2017-06-03T01:05:54.531Z,0
2017-06-03T01:07:04.913Z,0
2017-06-03T01:08:15.530Z,0
2017-06-03T01:09:25.281Z,0
2017-06-03T01:10:35.608Z,0
2017-06-03T01:11:45.947Z,0
2017-06-03T01:12:56.293Z,0
2017-06-03T01:14:06.383Z,0
2017-06-03T01:15:16.408Z,0
2017-06-03T01:16:26.754Z,0
2017-06-03T01:17:36.819Z,0
2017-06-03T01:18:47.175Z,0
2017-06-03T01:19:57.572Z,0
2017-06-03T01:21:07.916Z,0
2017-06-03T01:22:18.264Z,0
2017-06-03T01:23:28.304Z,0
2017-06-03T01:24:38.660Z,0
2017-06-03T01:25:49.007Z,0
2017-06-03T01:26:59.355Z,0
2017-06-03T01:28:09.399Z,0
2017-06-03T01:29:19.744Z,0
2017-06-03T01:30:30.106Z,0
2017-06-03T01:31:40.197Z,0
2017-06-03T01:32:50.575Z,0
2017-06-03T01:34:00.625Z,0
2017-06-03T01:35:10.976Z,0
2017-06-03T01:36:21.313Z,0
2017-06-03T01:37:31.665Z,0
2017-06-03T01:38:42.227Z,0
2017-06-03T01:39:52.269Z,0
2017-06-03T01:41:02.309Z,0
2017-06-03T01:42:12.341Z,0
2017-06-03T01:43:22.430Z,0
2017-06-03T01:44:32.484Z,0
2017-06-03T01:45:42.841Z,0
2017-06-03T01:46:52.889Z,0
2017-06-03T01:48:03.240Z,0
2017-06-03T01:49:13.641Z,0
2017-06-03T01:50:23.675Z,0
2017-06-03T01:51:33.729Z,0
2017-06-03T01:52:44.086Z,0
2017-06-03T01:53:54.443Z,0
2017-06-03T01:55:04.809Z,0
2017-06-03T01:56:14.834Z,0
2017-06-03T01:57:25.179Z,0
2017-06-03T01:58:34.588Z,0
2017-06-03T01:59:44.656Z,0
2017-06-03T02:00:55.020Z,0
2017-06-03T02:02:05.357Z,0
2017-06-03T02:03:15.412Z,0
2017-06-03T02:04:25.782Z,0
2017-06-03T02:05:35.887Z,0
2017-06-03T02:06:46.445Z,0
2017-06-03T02:07:56.480Z,0
2017-06-03T02:09:06.841Z,0
2017-06-03T02:10:17.200Z,0
2017-06-03T02:11:26.939Z,0
2017-06-03T02:12:37.343Z,0
2017-06-03T02:13:47.691Z,0
2017-06-03T02:14:57.732Z,4
2017-06-03T02:16:07.776Z,4
2017-06-03T02:17:18.176Z,4
2017-06-03T02:18:28.536Z,0
2017-06-03T02:19:38.573Z,0
2017-06-03T02:20:48.916Z,4
2017-06-03T02:21:59.271Z,4
2017-06-03T02:23:09.675Z,4
2017-06-03T02:24:20.034Z,4
2017-06-03T02:25:30.367Z,4
2017-06-03T02:26:40.726Z,8
2017-06-03T02:27:51.064Z,8
2017-06-03T02:29:01.612Z,8
2017-06-03T02:30:11.656Z,8
2017-06-03T02:31:21.702Z,8
2017-06-03T02:32:31.754Z,12
2017-06-03T02:33:42.106Z,12
2017-06-03T02:34:52.506Z,16
2017-06-03T02:36:02.856Z,20
2017-06-03T02:37:13.226Z,20
2017-06-03T02:38:22.946Z,24
2017-06-03T02:39:33.293Z,28
2017-06-03T02:40:43.385Z,32
2017-06-03T02:41:53.728Z,36
2017-06-03T02:43:04.082Z,40
2017-06-03T02:44:14.438Z,48
2017-06-03T02:45:24.778Z,52
2017-06-03T02:46:35.189Z,60
2017-06-03T02:47:44.923Z,64
2017-06-03T02:48:55.283Z,76
2017-06-03T02:50:05.335Z,84
2017-06-03T02:51:15.053Z,92
2017-06-03T02:52:25.448Z,104
2017-06-03T02:53:35.490Z,116
2017-06-03T02:54:45.533Z,128
2017-06-03T02:55:55.891Z,144
2017-06-03T02:57:06.254Z,156
2017-06-03T02:58:16.646Z,168
2017-06-03T02:59:26.688Z,184
2017-06-03T03:00:36.731Z,204
2017-06-03T03:01:47.082Z,220
2017-06-03T03:34:00.507Z,1224
2017-06-03T03:35:10.847Z,1284
2017-06-03T03:36:21.199Z,1332
2017-06-03T03:37:31.232Z,1380
2017-06-03T03:38:41.248Z,1424
2017-06-03T03:39:51.325Z,1472
2017-06-03T03:41:01.367Z,1520
2017-06-03T03:42:11.712Z,1584
2017-06-03T03:43:21.425Z,1640
2017-06-03T03:44:31.465Z,1696
2017-06-03T03:45:41.546Z,1760
2017-06-03T03:46:51.902Z,1816
2017-06-03T03:48:02.247Z,1876
2017-06-03T03:49:12.600Z,1928
2017-06-03T03:50:22.636Z,1980
2017-06-03T03:51:32.736Z,2028
2017-06-03T03:52:42.777Z,2080
2017-06-03T03:53:53.121Z,2124
2017-06-03T03:55:03.468Z,2180
2017-06-03T03:56:14.048Z,2232
2017-06-03T03:57:24.443Z,2284
2017-06-03T03:58:34.816Z,2336
2017-06-03T03:59:45.170Z,2392
2017-06-03T04:00:55.514Z,2448
2017-06-03T04:02:05.874Z,2508
2017-06-03T04:03:16.265Z,2568
2017-06-03T04:04:26.614Z,2628
2017-06-03T04:05:36.968Z,2684
2017-06-03T04:06:46.994Z,2744
2017-06-03T04:07:56.716Z,2796
2017-06-03T04:09:07.089Z,2852
2017-06-03T04:10:17.443Z,2904
2017-06-03T04:11:27.803Z,2964
2017-06-03T04:12:37.848Z,3024
2017-06-03T04:13:48.229Z,3080
2017-06-03T04:14:58.322Z,3132
2017-06-03T04:16:08.665Z,3196
2017-06-03T04:17:18.702Z,3276
2017-06-03T04:18:29.059Z,5864
2017-06-03T04:19:39.094Z,8660
2017-06-03T04:20:49.771Z,8812
2017-06-03T04:21:59.501Z,9388
2017-06-03T04:23:09.866Z,9544
2017-06-03T04:24:19.888Z,9784
2017-06-03T04:25:29.954Z,10116
2017-06-03T04:26:40.310Z,10084
2017-06-03T04:27:50.038Z,10284
2017-06-03T04:29:00.088Z,10288
2017-06-03T04:30:10.120Z,10376
2017-06-03T04:31:20.475Z,10424
2017-06-03T04:32:30.509Z,10476
2017-06-03T04:33:40.858Z,10740
2017-06-03T04:34:51.213Z,10740
2017-06-03T04:36:01.564Z,10680
2017-06-03T04:37:11.902Z,10668
2017-06-03T04:38:22.263Z,10600
2017-06-03T04:39:32.606Z,10524
2017-06-03T04:40:42.951Z,10528
2017-06-03T04:41:52.678Z,10552
2017-06-03T04:43:03.026Z,10748
2017-06-03T04:44:13.376Z,10884
2017-06-03T04:45:23.422Z,10956
2017-06-03T04:46:33.779Z,10852
2017-06-03T04:47:44.129Z,10840
2017-06-03T04:48:54.485Z,10804
2017-06-03T04:50:04.894Z,10720
2017-06-03T04:51:15.257Z,10956
2017-06-03T04:52:25.615Z,10928
2017-06-03T04:53:35.949Z,10888
2017-06-03T04:54:46.298Z,11012
2017-06-03T04:55:56.655Z,10916
2017-06-03T04:57:06.997Z,10500
2017-06-03T04:58:17.367Z,10508
2017-06-03T04:59:27.720Z,10472
2017-06-03T05:00:37.463Z,9860
2017-06-03T05:01:47.877Z,9824
2017-06-03T05:02:58.245Z,10592
2017-06-03T05:04:08.602Z,10832
2017-06-03T05:05:18.649Z,10644
2017-06-03T05:06:29.006Z,10004
2017-06-03T05:07:39.396Z,10180
2017-06-03T05:08:49.446Z,10408
2017-06-03T05:09:59.791Z,10388
2017-06-03T05:11:09.846Z,10888
2017-06-03T05:12:20.219Z,11204
2017-06-03T05:13:30.319Z,11312
2017-06-03T05:14:40.365Z,11368
2017-06-03T05:15:50.422Z,11400
2017-06-03T05:17:00.462Z,11620
2017-06-03T05:18:10.809Z,11616
2017-06-03T05:19:21.219Z,11508
2017-06-03T05:20:31.286Z,11828
2017-06-03T05:21:41.636Z,12160
2017-06-03T05:22:51.994Z,12248
2017-06-03T05:24:02.047Z,12156
2017-06-03T05:25:12.401Z,12100
2017-06-03T05:26:22.764Z,11796
2017-06-03T05:27:33.124Z,11844
2017-06-03T05:28:43.156Z,11284
2017-06-03T05:29:53.512Z,9660
2017-06-03T05:31:03.556Z,9240
2017-06-03T05:32:13.929Z,6868
2017-06-03T05:33:23.989Z,8884
2017-06-03T05:34:34.332Z,6256
2017-06-03T05:35:44.714Z,11144
2017-06-03T05:36:55.067Z,7816
2017-06-03T05:38:05.424Z,6156
2017-06-03T05:39:15.784Z,6072
2017-06-03T05:40:26.140Z,7272
2017-06-03T05:41:36.185Z,6388
2017-06-03T05:42:46.535Z,8216
2017-06-03T05:43:56.570Z,7244
2017-06-03T05:45:06.951Z,7084
2017-06-03T05:46:17.310Z,13580
2017-06-03T05:47:27.728Z,13280
2017-06-03T05:48:38.093Z,13336
2017-06-03T05:49:48.464Z,13360
2017-06-03T05:50:58.496Z,13448
2017-06-03T05:52:08.843Z,13364
2017-06-03T05:53:18.878Z,13196
2017-06-03T05:54:28.993Z,13048
2017-06-03T05:55:39.362Z,13040
2017-06-03T05:56:49.716Z,13188
2017-06-03T05:58:00.081Z,13104
2017-06-03T05:59:10.432Z,12808
2017-06-03T06:00:20.832Z,12260
2017-06-03T06:01:31.188Z,11284
2017-06-03T06:02:41.559Z,12456
2017-06-03T06:03:51.292Z,12584
2017-06-03T06:05:01.039Z,12476
2017-06-03T06:06:11.140Z,12392
2017-06-03T06:07:21.499Z,12296
2017-06-03T06:08:32.060Z,12248
2017-06-03T06:09:42.407Z,12240
2017-06-03T06:10:52.459Z,12280
2017-06-03T06:12:02.859Z,12072
2017-06-03T06:13:12.909Z,12032
2017-06-03T06:14:23.254Z,11612
2017-06-03T06:15:33.605Z,11976
2017-06-03T06:16:43.985Z,12020
2017-06-03T06:17:54.403Z,11764
2017-06-03T06:19:04.448Z,11440
2017-06-03T06:20:14.817Z,10164
2017-06-03T06:21:25.184Z,5832
2017-06-03T06:22:35.568Z,5900
2017-06-03T06:23:46.034Z,9720
2017-06-03T06:24:56.390Z,9816
2017-06-03T06:26:06.734Z,10140
2017-06-03T06:27:17.101Z,9576
2017-06-03T06:28:27.148Z,6156
2017-06-03T06:29:37.555Z,10920
2017-06-03T06:30:47.606Z,10928
2017-06-03T06:31:57.959Z,10632
2017-06-03T06:33:08.312Z,10464
2017-06-03T06:34:18.675Z,10276
2017-06-03T06:35:28.755Z,10056
2017-06-03T06:36:38.804Z,10252
2017-06-03T06:37:48.843Z,8780
2017-06-03T06:38:59.185Z,9128
2017-06-03T06:40:09.239Z,9540
2017-06-03T06:41:19.603Z,9720
2017-06-03T06:42:30.201Z,9756
2017-06-03T06:43:40.600Z,9616
2017-06-03T06:44:50.957Z,9512
2017-06-03T06:46:01.035Z,9300
2017-06-03T06:47:11.442Z,9460
2017-06-03T06:48:21.319Z,9556
2017-06-03T06:49:31.370Z,9192
2017-06-03T06:50:41.425Z,8352
2017-06-03T06:51:51.489Z,9100
2017-06-03T06:53:01.890Z,9120
2017-06-03T06:54:12.262Z,8960
2017-06-03T06:55:22.296Z,8768
2017-06-03T06:56:32.351Z,8680
2017-06-03T06:57:42.717Z,8604
2017-06-03T06:58:52.815Z,8528
2017-06-03T07:00:03.162Z,8412
2017-06-03T07:01:13.527Z,8284
2017-06-03T07:02:24.095Z,8184
2017-06-03T07:03:34.443Z,8060
2017-06-03T07:04:44.805Z,7940
2017-06-03T07:05:55.158Z,7796
2017-06-03T07:07:05.198Z,7684
2017-06-03T07:08:15.554Z,7404
2017-06-03T07:09:25.287Z,6956
2017-06-03T07:10:35.631Z,6724
2017-06-03T07:11:45.985Z,6692
2017-06-03T07:12:56.340Z,6688
2017-06-03T07:14:06.710Z,6692
2017-06-03T07:15:16.764Z,6700
2017-06-03T07:16:27.163Z,6688
2017-06-03T07:17:36.885Z,6680
2017-06-03T07:18:47.235Z,6704
2017-06-03T07:19:57.281Z,6716
2017-06-03T07:21:07.370Z,6744
2017-06-03T07:22:17.779Z,6764
2017-06-03T07:23:28.140Z,6764
2017-06-03T07:24:38.502Z,6768
2017-06-03T07:25:48.845Z,6744
2017-06-03T07:26:59.209Z,6732
2017-06-03T07:28:09.617Z,6676
2017-06-03T07:29:19.967Z,6696
2017-06-03T07:30:30.321Z,6720
2017-06-03T07:31:40.704Z,6788
2017-06-03T07:32:50.742Z,6820
2017-06-03T07:34:00.799Z,6856
2017-06-03T07:35:11.142Z,6868
2017-06-03T07:36:21.511Z,6868
2017-06-03T07:37:31.853Z,6852
2017-06-03T07:38:42.257Z,6908
2017-06-03T07:39:52.630Z,6944
2017-06-03T07:41:02.773Z,6940
2017-06-03T07:42:13.137Z,6952
2017-06-03T07:43:23.176Z,6972
2017-06-03T07:44:33.239Z,6936
2017-06-03T07:45:43.670Z,7096
2017-06-03T07:46:54.035Z,7136
2017-06-03T07:48:04.384Z,7112
2017-06-03T07:49:14.735Z,7208
2017-06-03T07:50:25.106Z,7244
2017-06-03T07:51:35.203Z,7328
2017-06-03T07:52:45.564Z,7416
2017-06-03T07:53:55.937Z,7512
2017-06-03T07:55:06.000Z,7576
2017-06-03T07:56:16.392Z,7632
2017-06-03T07:57:26.798Z,7340
2017-06-03T07:58:37.152Z,7640
2017-06-03T07:59:47.190Z,7556
2017-06-03T08:00:57.215Z,7532
2017-06-03T08:02:07.589Z,7428
2017-06-03T08:03:17.962Z,7452
2017-06-03T08:04:28.309Z,7404
2017-06-03T08:05:38.372Z,7456
2017-06-03T08:06:48.728Z,7464
2017-06-03T08:07:58.780Z,7432
2017-06-03T08:09:09.178Z,7392
2017-06-03T08:10:19.520Z,7356
2017-06-03T08:11:29.872Z,7316
2017-06-03T08:12:39.909Z,7308
2017-06-03T08:13:50.318Z,7296
2017-06-03T08:15:00.357Z,7284
2017-06-03T08:16:10.432Z,7292
2017-06-03T08:17:20.798Z,7308
2017-06-03T08:18:31.157Z,7236
2017-06-03T08:19:41.518Z,7236
2017-06-03T08:20:51.948Z,7276
2017-06-03T08:22:02.311Z,7308
2017-06-03T08:23:12.687Z,7300
2017-06-03T08:24:23.078Z,7280
2017-06-03T08:25:33.160Z,7260
2017-06-03T08:26:43.245Z,7208
2017-06-03T08:27:53.629Z,7156
2017-06-03T08:29:03.708Z,7176
2017-06-03T08:30:13.751Z,7220
2017-06-03T08:31:23.794Z,7264
2017-06-03T08:32:34.208Z,7272
2017-06-03T08:33:43.942Z,7312
2017-06-03T08:34:54.296Z,7292
2017-06-03T08:36:04.673Z,7232
2017-06-03T08:37:15.052Z,7264
2017-06-03T08:38:25.413Z,7272
2017-06-03T08:39:35.771Z,7180
2017-06-03T08:40:45.823Z,7140
2017-06-03T08:41:56.192Z,7128
2017-06-03T08:43:06.553Z,7152
2017-06-03T08:44:16.962Z,7168
2017-06-03T08:45:26.708Z,7172
2017-06-03T08:46:37.095Z,7160
2017-06-03T08:47:47.465Z,7144
2017-06-03T08:48:57.817Z,7172
2017-06-03T08:50:07.621Z,7180
2017-06-03T08:51:17.974Z,7212
2017-06-03T08:52:28.340Z,7200
2017-06-03T08:53:38.698Z,7180
2017-06-03T08:54:48.742Z,7184
2017-06-03T08:55:59.154Z,7152
2017-06-03T08:57:09.509Z,7164
2017-06-03T08:58:19.568Z,7172
2017-06-03T08:59:29.595Z,7172
2017-06-03T09:00:39.649Z,7140
2017-06-03T09:01:49.693Z,7144
2017-06-03T09:03:00.049Z,7116
2017-06-03T09:04:10.404Z,7160
2017-06-03T09:05:20.756Z,7176
2017-06-03T09:06:31.160Z,7172
2017-06-03T09:07:41.210Z,7176
2017-06-03T09:08:51.275Z,7180
2017-06-03T09:10:01.642Z,7192
2017-06-03T09:11:12.005Z,7196
2017-06-03T09:12:22.362Z,7224
2017-06-03T09:13:32.404Z,7244
2017-06-03T09:14:42.461Z,7252
2017-06-03T09:15:52.503Z,7264
2017-06-03T09:17:02.541Z,7296
2017-06-03T09:18:12.962Z,7288
2017-06-03T09:19:23.322Z,7304
2017-06-03T09:20:33.380Z,7320
2017-06-03T09:21:43.757Z,7340
2017-06-03T09:22:53.493Z,7348
2017-06-03T09:24:03.910Z,7344
2017-06-03T09:25:13.999Z,7344
2017-06-03T09:26:24.055Z,7348
2017-06-03T09:27:34.423Z,7320
2017-06-03T09:28:44.782Z,7280
2017-06-03T09:29:54.572Z,7292
2017-06-03T09:31:04.629Z,7292
2017-06-03T09:32:14.677Z,7296
2017-06-03T09:33:25.046Z,7296
2017-06-03T09:34:35.101Z,7296
2017-06-03T09:35:45.525Z,7300
2017-06-03T09:36:55.575Z,7296
2017-06-03T09:38:05.956Z,7296
2017-06-03T09:39:15.707Z,7316
2017-06-03T09:40:26.055Z,7340
2017-06-03T09:41:36.428Z,7372
2017-06-03T09:42:46.472Z,7376
2017-06-03T09:43:56.510Z,7368
2017-06-03T09:45:06.262Z,7388
2017-06-03T09:46:16.611Z,7396
2017-06-03T09:47:26.658Z,7376
2017-06-03T09:48:37.023Z,7384
2017-06-03T09:49:47.380Z,7388
2017-06-03T09:50:57.736Z,7412
2017-06-03T09:52:08.138Z,7432
2017-06-03T09:53:18.184Z,7432
2017-06-03T09:54:28.250Z,7452
2017-06-03T09:55:38.626Z,7460
2017-06-03T09:56:48.981Z,7464
2017-06-03T09:57:59.366Z,7496
2017-06-03T09:59:09.470Z,7500
2017-06-03T10:00:19.835Z,7512
2017-06-03T10:01:30.229Z,7536
2017-06-03T10:02:40.594Z,7556
2017-06-03T10:04:09.585Z,7580
2017-06-03T10:05:19.646Z,7564
2017-06-03T10:06:30.006Z,7552
2017-06-03T10:07:40.361Z,7520
2017-06-03T10:08:50.717Z,7520
2017-06-03T10:10:00.495Z,7540
2017-06-03T10:11:10.865Z,7548
2017-06-03T10:12:21.223Z,7572
2017-06-03T10:13:31.260Z,7616
2017-06-03T10:14:41.648Z,7640
2017-06-03T10:15:51.748Z,7648
2017-06-03T10:17:01.483Z,7644
2017-06-03T10:18:11.847Z,7660
2017-06-03T10:19:22.209Z,7676
2017-06-03T10:20:32.585Z,7668
2017-06-03T10:21:43.001Z,7672
2017-06-03T10:22:53.047Z,7692
2017-06-03T10:24:03.401Z,7692
2017-06-03T10:25:13.454Z,7712
2017-06-03T10:26:23.816Z,7704
2017-06-03T10:27:34.195Z,7696
2017-06-03T10:28:44.552Z,7688
2017-06-03T10:29:54.601Z,7680
2017-06-03T10:31:04.671Z,7664
2017-06-03T10:32:14.716Z,7684
2017-06-03T10:33:25.135Z,7728
2017-06-03T10:34:35.212Z,7752
2017-06-03T10:35:45.267Z,7768
2017-06-03T10:36:55.620Z,7776
2017-06-03T10:38:05.662Z,7776
2017-06-03T10:39:16.078Z,7808
2017-06-03T10:40:26.426Z,7824
2017-06-03T10:41:36.472Z,7856
2017-06-03T10:42:46.532Z,7876
2017-06-03T10:43:56.881Z,7896
2017-06-03T10:45:07.273Z,7912
2017-06-03T10:46:17.005Z,7940
2017-06-03T10:47:27.085Z,7964
2017-06-03T10:48:37.130Z,7928
2017-06-03T10:49:47.179Z,7920
2017-06-03T10:50:57.589Z,7928
2017-06-03T10:52:07.964Z,7932
2017-06-03T10:53:18.016Z,7928
2017-06-03T10:54:28.066Z,7904
2017-06-03T10:55:38.452Z,7884
2017-06-03T10:56:48.857Z,7880
2017-06-03T10:57:59.241Z,7848
2017-06-03T10:59:09.286Z,7828
2017-06-03T11:00:19.656Z,7796
2017-06-03T11:01:30.024Z,7796
2017-06-03T11:02:40.411Z,7844
2017-06-03T11:03:50.459Z,7928
2017-06-03T11:05:00.520Z,8000
2017-06-03T11:06:10.884Z,8056
2017-06-03T11:07:21.255Z,8104
2017-06-03T11:08:31.354Z,8112
2017-06-03T11:09:41.378Z,8116
2017-06-03T11:10:51.737Z,8104
2017-06-03T11:12:02.099Z,8120
2017-06-03T11:13:12.458Z,8136
2017-06-03T11:14:22.562Z,8152
2017-06-03T11:15:32.619Z,8172
2017-06-03T11:16:42.674Z,8192
2017-06-03T11:17:53.038Z,8248
2017-06-03T11:19:03.402Z,8272
2017-06-03T11:20:13.817Z,8304
2017-06-03T11:21:23.858Z,8348
2017-06-03T11:22:33.902Z,8372
2017-06-03T11:23:44.274Z,8396
2017-06-03T11:24:54.642Z,8404
2017-06-03T11:26:05.092Z,8388
2017-06-03T11:27:15.464Z,8416
2017-06-03T11:28:25.525Z,8456
2017-06-03T11:29:35.881Z,8448
2017-06-03T11:30:45.617Z,8416
2017-06-03T11:31:56.023Z,8404
2017-06-03T11:33:06.386Z,8388
2017-06-03T11:34:16.729Z,8420
2017-06-03T11:35:27.105Z,8520
2017-06-03T11:36:37.392Z,8664
2017-06-03T11:37:47.432Z,8708
2017-06-03T11:38:57.776Z,8748
2017-06-03T11:40:08.158Z,8728
2017-06-03T11:41:18.526Z,8720
2017-06-03T11:42:28.886Z,8708
2017-06-03T11:43:39.243Z,8736
2017-06-03T11:44:49.607Z,8708
2017-06-03T11:45:59.976Z,8748
2017-06-03T11:47:10.327Z,8792
2017-06-03T11:48:20.384Z,8820
2017-06-03T11:49:30.485Z,8932
2017-06-03T11:50:40.844Z,8916
2017-06-03T11:51:51.228Z,8816
2017-06-03T11:53:01.591Z,8820
2017-06-03T11:54:11.636Z,8776
2017-06-03T11:55:22.010Z,8748
2017-06-03T11:56:32.367Z,8704
2017-06-03T11:57:42.406Z,8692
2017-06-03T11:58:52.771Z,8068
2017-06-03T12:00:03.151Z,8108
2017-06-03T12:01:13.573Z,8152
2017-06-03T12:02:23.941Z,8520
2017-06-03T12:03:34.011Z,8528
2017-06-03T12:04:44.371Z,8572
2017-06-03T12:05:54.722Z,8668
2017-06-03T12:07:05.133Z,8748
2017-06-03T12:08:15.499Z,8768
2017-06-03T12:09:25.776Z,8732
2017-06-03T12:10:35.443Z,8700
2017-06-03T12:11:45.800Z,8720
2017-06-03T12:12:55.572Z,8784
2017-06-03T12:14:05.923Z,8808
2017-06-03T12:15:15.660Z,8872
2017-06-03T12:16:26.042Z,8940
2017-06-03T12:17:36.103Z,8952
2017-06-03T12:18:46.161Z,8988
2017-06-03T12:19:56.555Z,9136
2017-06-03T12:21:06.919Z,9164
2017-06-03T12:22:17.287Z,9112
2017-06-03T12:23:26.708Z,9160
2017-06-03T12:24:37.074Z,8376
2017-06-03T12:25:47.432Z,9056
2017-06-03T12:26:57.469Z,8108
2017-06-03T12:28:07.227Z,8704
2017-06-03T12:29:17.601Z,8676
2017-06-03T12:30:28.019Z,8716
2017-06-03T12:31:38.378Z,8576
2017-06-03T12:32:48.737Z,8724
2017-06-03T12:33:58.489Z,8688
2017-06-03T12:35:08.870Z,5340
2017-06-03T12:36:19.276Z,5080
2017-06-03T12:37:29.324Z,4908
2017-06-03T12:38:39.680Z,4848
2017-06-03T12:39:50.042Z,5012
2017-06-03T12:41:00.389Z,4968
2017-06-03T12:42:10.133Z,4912
2017-06-03T12:43:20.206Z,4908
2017-06-03T12:44:30.585Z,4992
2017-06-03T12:45:40.637Z,5116
2017-06-03T12:46:51.009Z,7212
2017-06-03T12:48:01.120Z,7740
2017-06-03T12:49:11.485Z,8904
2017-06-03T12:50:21.227Z,8904
2017-06-03T12:51:31.273Z,8908
2017-06-03T12:52:41.679Z,8748
2017-06-03T12:53:52.075Z,9040
2017-06-03T12:55:02.435Z,7244
2017-06-03T12:56:12.482Z,8724
2017-06-03T12:57:22.533Z,6304
2017-06-03T12:58:32.914Z,5716
2017-06-03T12:59:43.019Z,5656
2017-06-03T13:00:53.067Z,7832
2017-06-03T13:02:03.445Z,8700
2017-06-03T13:03:13.511Z,8584
2017-06-03T13:04:23.551Z,8544
2017-06-03T13:05:33.360Z,8512
2017-06-03T13:06:43.432Z,7736
2017-06-03T13:07:53.789Z,8224
2017-06-03T13:09:04.126Z,8716
2017-06-03T13:10:14.171Z,8996
2017-06-03T13:11:23.905Z,9024
2017-06-03T13:12:33.946Z,9188
2017-06-03T13:13:44.313Z,9308
2017-06-03T13:14:54.361Z,9360
2017-06-03T13:16:04.716Z,9324
2017-06-03T13:17:14.503Z,9264
2017-06-03T13:18:24.864Z,9200
2017-06-03T13:19:35.226Z,9196
2017-06-03T13:20:45.578Z,9076
2017-06-03T13:21:55.630Z,9068
2017-06-03T13:23:06.000Z,8940
2017-06-03T13:24:16.357Z,8832
2017-06-03T13:25:26.418Z,8720
2017-06-03T13:26:36.826Z,8592
2017-06-03T13:27:47.180Z,8576
2017-06-03T13:28:57.273Z,8412
2017-06-03T13:30:07.322Z,8280
2017-06-03T13:31:17.368Z,8080
2017-06-03T13:32:27.728Z,7896
2017-06-03T13:33:37.208Z,8440
2017-06-03T13:34:47.271Z,8348
2017-06-03T13:35:57.322Z,8252
2017-06-03T13:37:07.903Z,8256
2017-06-03T13:38:18.275Z,6356
2017-06-03T13:39:28.631Z,7604
2017-06-03T13:40:39.051Z,5512
2017-06-03T13:41:49.093Z,5164
2017-06-03T13:42:59.144Z,5100
2017-06-03T13:44:09.506Z,5076
2017-06-03T13:45:19.866Z,5172
2017-06-03T13:46:30.277Z,4964
2017-06-03T13:47:40.320Z,4832
2017-06-03T13:48:50.372Z,5576
2017-06-03T13:50:00.750Z,5956
2017-06-03T13:51:10.178Z,4640
2017-06-03T13:52:20.591Z,5204
2017-06-03T13:53:30.941Z,7052
2017-06-03T13:54:40.994Z,4832
2017-06-03T13:55:51.373Z,4412
2017-06-03T13:57:01.742Z,4436
2017-06-03T13:58:11.785Z,4476
2017-06-03T13:59:21.519Z,4636
2017-06-03T14:00:31.931Z,4940
2017-06-03T14:01:41.972Z,5192
2017-06-03T14:02:52.382Z,6364
2017-06-03T14:04:02.759Z,7588
2017-06-03T14:05:13.148Z,7448
2017-06-03T14:06:23.191Z,7552
2017-06-03T14:07:33.550Z,7528
2017-06-03T14:08:43.912Z,7532
2017-06-03T14:09:54.326Z,7500
2017-06-03T14:11:04.402Z,7476
2017-06-03T14:12:14.753Z,7268
2017-06-03T14:13:25.170Z,7264
2017-06-03T14:14:34.894Z,7252
2017-06-03T14:15:44.938Z,7268
2017-06-03T14:16:54.990Z,7288
2017-06-03T14:18:05.364Z,7296
2017-06-03T14:19:15.735Z,7344
2017-06-03T14:20:26.099Z,7364
2017-06-03T14:21:36.156Z,7332
2017-06-03T14:22:46.514Z,7300
2017-06-03T14:23:56.584Z,7284
2017-06-03T14:25:07.017Z,7248
2017-06-03T14:26:17.066Z,7252
2017-06-03T14:27:27.441Z,7236
2017-06-03T14:28:37.798Z,7272
2017-06-03T14:29:47.844Z,7280
2017-06-03T14:30:58.266Z,7240
2017-06-03T14:32:08.652Z,7124
2017-06-03T14:33:18.390Z,6964
2017-06-03T14:34:28.751Z,6780
2017-06-03T14:35:38.803Z,6796
2017-06-03T14:36:49.241Z,6920
2017-06-03T14:37:59.595Z,6984
2017-06-03T14:39:09.958Z,6964
2017-06-03T14:40:19.999Z,6944
2017-06-03T14:41:30.352Z,6932
2017-06-03T14:42:40.404Z,6876
2017-06-03T14:43:50.771Z,6848
2017-06-03T14:45:00.494Z,6812
2017-06-03T14:46:10.867Z,6800
2017-06-03T14:47:21.237Z,6744
2017-06-03T14:48:31.704Z,6708
2017-06-03T14:49:42.078Z,6800
2017-06-03T14:50:52.428Z,6700
2017-06-03T14:52:02.481Z,6780
2017-06-03T14:53:12.857Z,6800
2017-06-03T14:54:23.219Z,6796
2017-06-03T14:55:33.259Z,6708
2017-06-03T14:56:43.617Z,6572
2017-06-03T14:57:53.991Z,6536
2017-06-03T14:59:04.362Z,6300
2017-06-03T15:00:14.787Z,6240
2017-06-03T15:01:25.137Z,6156
2017-06-03T15:02:35.522Z,5960
2017-06-03T15:03:45.267Z,5848
2017-06-03T15:04:55.626Z,5156
2017-06-03T15:06:06.052Z,4708
2017-06-03T15:07:16.412Z,4492
2017-06-03T15:08:26.777Z,4400
2017-06-03T15:09:36.518Z,4416
2017-06-03T15:10:46.567Z,4428
2017-06-03T15:11:56.676Z,4580
2017-06-03T15:13:07.050Z,4772
2017-06-03T15:14:17.086Z,4940
2017-06-03T15:15:27.166Z,5004
2017-06-03T15:16:37.525Z,4928
2017-06-03T15:17:47.619Z,4924
2017-06-03T15:18:57.993Z,5280
2017-06-03T15:20:08.397Z,4604
2017-06-03T15:21:18.768Z,4428
2017-06-03T15:22:28.808Z,4300
2017-06-03T15:23:38.914Z,4152
2017-06-03T15:24:48.968Z,3984
2017-06-03T15:25:59.009Z,3872
2017-06-03T15:27:09.373Z,3888
2017-06-03T15:28:19.433Z,3976
2017-06-03T15:29:29.794Z,4200
2017-06-03T15:30:39.525Z,4552
2017-06-03T15:31:49.580Z,4984
2017-06-03T15:32:59.944Z,5444
2017-06-03T15:34:10.309Z,5680
2017-06-03T15:35:20.411Z,5636
2017-06-03T15:36:30.764Z,5452
2017-06-03T15:37:41.141Z,5280
2017-06-03T15:38:51.523Z,5128
2017-06-03T15:40:01.890Z,5020
2017-06-03T15:41:12.316Z,5444
2017-06-03T15:42:22.666Z,5660
2017-06-03T15:43:33.038Z,5572
2017-06-03T15:44:43.400Z,5516
2017-06-03T15:45:53.763Z,5960
2017-06-03T15:47:04.138Z,5672
2017-06-03T15:48:14.503Z,5196
2017-06-03T15:49:24.860Z,5744
2017-06-03T15:50:35.228Z,5848
2017-06-03T15:51:44.979Z,5892
2017-06-03T15:52:55.048Z,5940
2017-06-03T15:54:05.426Z,6040
2017-06-03T15:55:15.182Z,5908
2017-06-03T15:56:25.578Z,5800
2017-06-03T15:57:35.945Z,5780
2017-06-03T15:58:46.355Z,5872
2017-06-03T15:59:56.718Z,6004
2017-06-03T16:01:07.083Z,6116
2017-06-03T16:02:17.453Z,6148
2017-06-03T16:03:27.828Z,6224
2017-06-03T16:04:38.240Z,6308
2017-06-03T16:05:48.614Z,6272
2017-06-03T16:06:58.990Z,6168
2017-06-03T16:08:09.053Z,6120
2017-06-03T16:09:19.443Z,6096
2017-06-03T16:10:29.858Z,6028
2017-06-03T16:11:40.229Z,5960
2017-06-03T16:12:50.291Z,5892
2017-06-03T16:14:00.361Z,5792
2017-06-03T16:15:10.738Z,5688
2017-06-03T16:16:20.830Z,5588
2017-06-03T16:17:30.873Z,5504
2017-06-03T16:18:40.945Z,5400